< < Back
Terminal Aerodrome Forecast


Current Version              Previous Versions:   1  2  3  4  5  6  7  8  9  

Terminal Aerodrome Forecast

490
FTUS42 KILM 071134
TAFFLO
TAF
KFLO 071134Z 0712/0812 03014G24KT P6SM -RA SCT010 OVC060
      TEMPO 0713/0717 2SM RA BR SCT007 OVC015
     FM071700 36017G28KT 4SM -RA BR SCT007 OVC015
     FM072200 34015G24KT P6SM SCT060 OVC100
     FM080300 31008KT P6SM FEW250=

Latest METAR

536
SAUS70 KWBC 071256
MTRFLO
METAR KFLO 071253Z 02012KT 10SM -RA OVC065 03/01 A3000 RMK AO2 SLP158
P0003 T00280011


USA.gov is the U.S. government's official web portal to all federal, state and local government web resources and services.